Gainesville, NY (14066)

11:49 PM EDT on August 29, 2015 (GMT -0400)
W2TGR | | Change Station
CLOSE
Current Station
Personal Weather Station
Location: Bliss, NY
Elevation: 1975 ft
Nearby Weather Stations

Elev 1975 ft 42.58 °N, 78.28 °W | Updated 5 seconds ago

Overcast
Overcast
64.2 °F
Feels Like 64.2 °F
N
1.6
Wind Variable Wind from East
Gusts 1.6 mph

Today
High -- | Low -- °F
--% Chance of Precip.
Yesterday
High -- | Low -- °F
Precip. -- in
6:34 AM 7:52 PM
Full, 100% visible
Pressure 30.13 in
Visibility 10.0 miles
Clouds Mostly Cloudy 12000 ft
Dew Point 57 °F
Humidity 78%
Rainfall 0.00 in
Snow Depth Not available.
UV 0 out of 12
Pollen 9.90 out of 12
Air Quality Not available.
Flu Activity Not available.
METAR KDSV 300254Z AUTO 15006KT 10SM BKN120 18/16 A3011 RMK AO2 SLP202 T01780161 51003 $
Pressure 30.13 in
Visibility 10.0 miles
Clouds Mostly Cloudy 12000 ft
Dew Point 57 °F
Humidity 78%
Rainfall 0.00 in
Snow Depth Not available.
UV 0 out of 12
Pollen 9.90 out of 12
Air Quality Not available.
Flu Activity Not available.
METAR KDSV 300254Z AUTO 15006KT 10SM BKN120 18/16 A3011 RMK AO2 SLP202 T01780161 51003 $

10-Day Weather Forecast

×

Almanac

Astronomy

Aug. 29, 2015 Rise Set
Actual Time
Civil Twilight
Nautical Twilight
Astronomical Twilight
Moon
Length of Visible Light
Length of Day
Tomorrow will be .
, % of the Moon is Illuminated

Today's Extremes

State Highs State Lows

Community

WunderPhotos

Upload Photos

1,850,870 photos uploaded!

WunderBlogs® & News

Nearby

Air Quality

  Air Quality AQ Index Pollutant
Not available.

Snow Depth

Station Depth Elevation

Earthquake Activity

City Distance Mag. Time & Date
Minimum magnitude displayed is 2.5.

Coastal Water Temperatures

Place Temperature

Stations

Nearby Weather Stations

Station Location Temp. Windchill Dew Point Humidity Wind Precip. Elev Updated Type